Time;durP1;ratioP1;P1;durP2;ratioP2;P2;SDS_P1;SDS_P2;PMS_P1;PMS_P2;Temp;Humidity;BMP_temperature;BMP_pressure;BME280_temperature;BME280_humidity;BME280_pressure;Samples;Min_cycle;Max_cycle;Signal;HPM_P1;HPM_P2
2022/08/01 00:01:22;;;;;;;8.20;4.37;;;;;;;18.28;100.00;100684.28;6051256;28;20065;-64
2022/08/01 00:04:17;;;;;;;9.53;5.37;;;;;;;18.35;100.00;100695.88;6051373;28;20030;-63
2022/08/01 00:07:12;;;;;;;5.53;3.87;;;;;;;18.28;100.00;100689.66;6051545;28;20504;-63
2022/08/01 00:10:10;;;;;;;6.13;4.07;;;;;;;18.32;100.00;100683.69;6050998;28;20110;-64
2022/08/01 00:13:05;;;;;;;7.35;4.30;;;;;;;18.37;100.00;100699.22;6051330;28;20061;-64
2022/08/01 00:16:01;;;;;;;6.27;4.20;;;;;;;18.31;100.00;100681.22;6051610;28;20056;-63
2022/08/01 00:18:56;;;;;;;6.43;3.90;;;;;;;18.34;100.00;100672.75;6051131;28;20446;-64
2022/08/01 00:21:51;;;;;;;7.17;4.07;;;;;;;18.40;100.00;100698.81;6050467;28;20299;-64
2022/08/01 00:24:46;;;;;;;7.27;3.60;;;;;;;18.40;100.00;100690.75;6051329;28;20021;-63
2022/08/01 00:27:42;;;;;;;6.70;3.77;;;;;;;18.35;100.00;100682.47;6051159;28;20417;-63
2022/08/01 00:30:37;;;;;;;6.67;3.77;;;;;;;18.40;100.00;100688.06;6050647;28;20037;-63
2022/08/01 00:33:32;;;;;;;6.33;3.53;;;;;;;18.33;100.00;100676.47;6050863;28;20025;-63
2022/08/01 00:36:28;;;;;;;6.53;3.53;;;;;;;18.34;100.00;100678.13;6050897;28;20080;-64
2022/08/01 00:39:23;;;;;;;6.63;3.60;;;;;;;18.35;100.00;100669.88;6050818;28;20412;-63
2022/08/01 00:42:18;;;;;;;7.77;3.90;;;;;;;18.37;100.00;100669.69;6050201;28;20044;-63
2022/08/01 00:45:14;;;;;;;7.07;3.60;;;;;;;18.49;100.00;100680.72;6050983;28;20061;-62
2022/08/01 00:48:09;;;;;;;8.73;4.10;;;;;;;18.41;100.00;100673.63;6050532;28;20034;-63
2022/08/01 00:51:04;;;;;;;5.47;3.50;;;;;;;18.45;100.00;100689.13;6049905;28;20036;-63
2022/08/01 00:54:00;;;;;;;8.32;3.65;;;;;;;18.47;100.00;100683.59;6050297;28;20025;-64
2022/08/01 00:56:55;;;;;;;6.63;3.72;;;;;;;18.50;100.00;100671.66;6050448;28;20108;-64
2022/08/01 00:59:52;;;;;;;10.47;4.23;;;;;;;18.50;100.00;100671.66;6050741;28;20037;-64
2022/08/01 01:02:47;;;;;;;7.60;4.03;;;;;;;18.47;100.00;100672.84;6048964;28;20028;-63
2022/08/01 01:05:54;;;;;;;7.68;4.07;;;;;;;18.60;100.00;100678.31;6050207;28;20037;-63
2022/08/01 01:08:59;;;;;;;7.00;4.32;;;;;;;18.57;100.00;100676.00;6065740;28;20350;-62
2022/08/01 01:11:54;;;;;;;8.00;4.30;;;;;;;18.53;100.00;100676.63;6064465;28;20033;-62
2022/08/01 01:15:02;;;;;;;9.25;3.88;;;;;;;18.49;100.00;100670.81;6050037;28;20037;-63
2022/08/01 01:18:00;;;;;;;6.72;3.80;;;;;;;18.34;100.00;100662.03;6064532;28;20033;-63
2022/08/01 01:21:07;;;;;;;8.73;3.95;;;;;;;18.37;100.00;100673.19;6049505;28;20057;-62
2022/08/01 01:24:20;;;;;;;8.63;4.88;;;;;;;18.28;100.00;100662.81;6065125;28;20417;-63
2022/08/01 01:27:38;;;;;;;8.32;4.90;;;;;;;18.37;100.00;100673.19;6041741;28;20026;-62
2022/08/01 01:30:33;;;;;;;7.65;4.20;;;;;;;18.25;100.00;100663.19;6048479;28;20037;-63
2022/08/01 01:33:31;;;;;;;8.02;4.90;;;;;;;18.25;100.00;100674.78;6049910;28;20034;-64
2022/08/01 01:36:27;;;;;;;8.93;4.85;;;;;;;18.27;100.00;100678.09;6048577;28;20041;-63
2022/08/01 01:39:24;;;;;;;9.27;5.25;;;;;;;18.21;100.00;100669.97;6048621;28;20026;-65
2022/08/01 01:42:20;;;;;;;8.63;4.93;;;;;;;18.21;100.00;100664.59;6047956;28;20065;-63
2022/08/01 01:45:16;;;;;;;12.00;4.82;;;;;;;18.21;100.00;100667.28;6048484;28;20037;-63
2022/08/01 01:48:18;;;;;;;7.93;5.10;;;;;;;18.25;100.00;100673.94;6049754;28;20092;-63
2022/08/01 01:51:15;;;;;;;10.10;4.65;;;;;;;18.22;100.00;100668.97;6047031;28;20382;-63
2022/08/01 01:54:10;;;;;;;10.68;5.05;;;;;;;18.14;100.00;100666.44;6048543;28;20101;-64
2022/08/01 01:57:06;;;;;;;10.18;5.32;;;;;;;18.20;100.00;100674.53;6049647;28;20492;-64
2022/08/01 02:00:02;;;;;;;8.57;4.78;;;;;;;18.18;100.00;100673.06;6064313;28;20038;-64
2022/08/01 02:02:58;;;;;;;8.65;5.65;;;;;;;18.25;100.00;100676.63;6049443;28;20536;-64
2022/08/01 02:05:54;;;;;;;9.38;4.50;;;;;;;18.20;100.00;100671.00;6064656;28;20405;-64
2022/08/01 02:08:50;;;;;;;8.05;4.82;;;;;;;18.18;100.00;100668.50;6064548;28;20441;-63
2022/08/01 02:11:47;;;;;;;8.80;4.75;;;;;;;18.17;100.00;100672.25;6048547;28;20030;-64
2022/08/01 02:14:45;;;;;;;8.07;4.55;;;;;;;18.13;100.00;100657.53;6069033;28;20105;-63
2022/08/01 02:17:43;;;;;;;7.60;4.80;;;;;;;18.17;100.00;100666.03;6052796;28;20536;-63
2022/08/01 02:20:39;;;;;;;12.40;5.00;;;;;;;18.18;100.00;100665.03;6053118;28;20476;-63
2022/08/01 02:23:36;;;;;;;9.18;4.68;;;;;;;18.18;100.00;100665.03;6053691;28;20064;-63
2022/08/01 02:26:31;;;;;;;10.57;4.60;;;;;;;18.12;100.00;100663.13;6052495;28;20044;-62
2022/08/01 02:29:38;;;;;;;9.32;4.50;;;;;;;18.11;100.00;100661.44;6052616;28;20041;-62
2022/08/01 02:32:37;;;;;;;;;;;;;;;18.18;100.00;100673.88;6051973;28;20044;-64
2022/08/01 02:35:36;;;;;;;7.72;4.22;;;;;;;18.10;100.00;100673.22;6068531;28;20008;-63
2022/08/01 02:38:34;;;;;;;7.78;4.28;;;;;;;18.02;100.00;100666.13;6045495;28;20046;-63
2022/08/01 02:41:30;;;;;;;9.13;4.22;;;;;;;18.09;100.00;100675.06;6068014;28;20061;-64
2022/08/01 02:44:30;;;;;;;8.35;4.80;;;;;;;17.99;100.00;100666.50;6052269;28;20030;-63
2022/08/01 02:47:27;;;;;;;10.10;4.85;;;;;;;18.01;100.00;100671.72;6052035;28;20041;-63
2022/08/01 02:50:23;;;;;;;7.97;4.80;;;;;;;17.96;100.00;100674.16;6068085;28;20034;-63
2022/08/01 02:53:21;;;;;;;6.75;3.67;;;;;;;17.98;100.00;100674.78;6051877;28;20083;-64
2022/08/01 02:56:17;;;;;;;9.32;4.07;;;;;;;17.92;100.00;100676.38;6068216;28;20037;-65
2022/08/01 02:59:15;;;;;;;6.45;3.53;;;;;;;17.90;100.00;100685.66;6049957;28;20077;-62
2022/08/01 03:02:11;;;;;;;5.93;3.20;;;;;;;17.81;100.00;100685.78;6050847;28;20029;-65
2022/08/01 03:05:08;;;;;;;5.10;2.80;;;;;;;17.88;100.00;100682.34;6051808;28;20500;-64
2022/08/01 03:08:04;;;;;;;4.50;2.33;;;;;;;17.84;100.00;100698.00;6051780;28;20026;-64
2022/08/01 03:11:01;;;;;;;4.45;2.10;;;;;;;17.74;100.00;100687.59;6051107;28;20113;-65
2022/08/01 03:13:59;;;;;;;3.33;1.90;;;;;;;17.73;100.00;100690.47;6051508;28;20489;-64
2022/08/01 03:16:55;;;;;;;3.10;1.73;;;;;;;17.61;100.00;100690.13;6051329;28;20389;-65
2022/08/01 03:19:52;;;;;;;3.38;1.63;;;;;;;17.68;100.00;100709.81;6052512;28;20046;-64
2022/08/01 03:22:48;;;;;;;3.00;1.60;;;;;;;17.64;100.00;100705.84;6067099;28;20362;-64
2022/08/01 03:25:44;;;;;;;3.80;2.00;;;;;;;17.69;100.00;100716.03;6052056;28;20033;-63
2022/08/01 03:28:41;;;;;;;3.17;1.60;;;;;;;17.70;100.00;100717.66;6067500;28;20473;-64
2022/08/01 03:31:38;;;;;;;3.45;1.88;;;;;;;17.62;100.00;100715.94;6051246;28;20867;-64
2022/08/01 03:34:33;;;;;;;3.88;1.67;;;;;;;17.64;100.00;100719.25;6052235;28;20034;-64
2022/08/01 03:37:40;;;;;;;3.90;1.57;;;;;;;17.62;100.00;100710.59;6051846;28;20053;-65
2022/08/01 03:40:41;;;;;;;3.42;1.67;;;;;;;17.65;100.00;100720.94;6051466;28;20037;-64
2022/08/01 03:43:41;;;;;;;3.90;1.83;;;;;;;17.69;100.00;100716.81;6051080;28;20548;-65
2022/08/01 03:46:39;;;;;;;;;;;;;;;17.68;100.00;100725.91;6051423;28;20026;-65
2022/08/01 03:49:40;;;;;;;3.33;1.77;;;;;;;17.70;100.00;100726.53;6067304;28;19984;-64
2022/08/01 03:52:36;;;;;;;3.70;2.08;;;;;;;17.71;100.00;100728.22;6047588;28;20658;-64
2022/08/01 03:55:32;;;;;;;6.03;2.00;;;;;;;17.63;100.00;100717.63;6050519;28;20030;-64
2022/08/01 03:58:29;;;;;;;5.45;2.30;;;;;;;17.67;100.00;100729.59;6050538;28;20041;-65
2022/08/01 04:01:24;;;;;;;5.85;2.80;;;;;;;17.68;100.00;100725.91;6066482;28;20141;-65
2022/08/01 04:04:20;;;;;;;5.07;2.87;;;;;;;17.71;100.00;100730.06;6051539;28;20412;-64
2022/08/01 04:07:26;;;;;;;5.35;3.00;;;;;;;17.68;100.00;100723.22;6067093;28;20261;-63
2022/08/01 04:10:23;;;;;;;6.65;3.50;;;;;;;17.64;100.00;100731.84;6050962;28;20500;-63
2022/08/01 04:13:18;;;;;;;7.07;4.13;;;;;;;17.69;100.00;100732.91;6051260;28;20030;-64
2022/08/01 04:16:13;;;;;;;7.30;4.10;;;;;;;17.77;100.00;100740.84;6051578;28;20037;-64
2022/08/01 04:19:09;;;;;;;7.17;4.03;;;;;;;17.67;100.00;100751.06;6051288;28;20021;-65
2022/08/01 04:22:04;;;;;;;8.83;5.13;;;;;;;17.75;100.00;100758.16;6050554;28;20025;-64
2022/08/01 04:25:02;;;;;;;8.90;4.67;;;;;;;17.70;100.00;100761.41;6051152;28;20369;-64
2022/08/01 04:28:00;;;;;;;9.15;5.45;;;;;;;17.66;100.00;100752.09;6048667;28;20026;-62
2022/08/01 04:30:55;;;;;;;11.23;5.93;;;;;;;17.65;100.00;100752.28;6043018;28;20485;-62
2022/08/01 04:33:53;;;;;;;10.80;6.03;;;;;;;17.70;100.00;100769.47;6049055;28;20274;-63
2022/08/01 04:36:50;;;;;;;9.07;5.07;;;;;;;17.68;100.00;100752.75;6048749;28;20022;-63
2022/08/01 04:39:45;;;;;;;9.23;5.18;;;;;;;17.77;100.00;100773.03;6049446;28;20022;-64
2022/08/01 04:42:41;;;;;;;8.50;4.68;;;;;;;17.71;100.00;100778.34;6049083;28;20033;-63
2022/08/01 04:45:36;;;;;;;11.53;5.40;;;;;;;17.66;100.00;100768.19;6050911;28;20079;-63
2022/08/01 04:48:33;;;;;;;8.32;4.45;;;;;;;17.73;100.00;100776.28;6049210;28;20030;-64
2022/08/01 04:51:28;;;;;;;9.57;4.72;;;;;;;17.84;100.00;100779.31;6047077;28;20064;-63
2022/08/01 04:54:24;;;;;;;7.27;4.17;;;;;;;17.77;100.00;100773.03;6049961;28;20030;-63
2022/08/01 04:57:20;;;;;;;7.90;4.45;;;;;;;17.79;100.00;100792.47;6050498;28;20685;-63
2022/08/01 05:00:18;;;;;;;7.77;4.03;;;;;;;17.84;100.00;100798.09;6049872;28;20068;-62
2022/08/01 05:03:13;;;;;;;7.53;4.07;;;;;;;17.83;100.00;100796.41;6050132;28;20035;-64
2022/08/01 05:06:09;;;;;;;8.20;4.33;;;;;;;17.78;100.00;100787.28;6050359;28;20045;-63
2022/08/01 05:09:04;;;;;;;6.13;3.57;;;;;;;17.90;100.00;100803.72;6049867;28;20118;-63
2022/08/01 05:12:01;;;;;;;8.37;4.77;;;;;;;17.92;100.00;100807.03;6049730;28;20516;-63
2022/08/01 05:14:56;;;;;;;10.68;5.95;;;;;;;17.79;100.00;100799.69;6041259;28;20022;-63
2022/08/01 05:17:52;;;;;;;11.63;5.50;;;;;;;17.82;100.00;100797.47;6049781;28;20076;-63
2022/08/01 05:20:47;;;;;;;10.48;5.35;;;;;;;17.88;100.00;100811.13;6049028;28;20285;-63
2022/08/01 05:23:42;;;;;;;13.10;5.70;;;;;;;17.93;100.00;100796.13;6049794;28;20033;-63
2022/08/01 05:26:38;;;;;;;11.60;5.57;;;;;;;17.85;100.00;100796.25;6048883;28;20042;-63
2022/08/01 05:29:34;;;;;;;10.45;5.53;;;;;;;17.92;100.00;100815.09;6048058;28;20030;-62
2022/08/01 05:32:30;;;;;;;11.88;5.30;;;;;;;17.91;100.00;100816.13;6058836;28;20427;-63
2022/08/01 05:35:25;;;;;;;10.32;5.47;;;;;;;17.90;100.00;100819.81;6049389;28;20381;-62
2022/08/01 05:38:20;;;;;;;11.13;4.90;;;;;;;17.89;100.00;100821.66;6049469;28;20026;-64
2022/08/01 05:41:15;;;;;;;9.57;4.90;;;;;;;17.91;100.00;100827.66;6049042;28;20835;-64
2022/08/01 05:44:11;;;;;;;10.10;5.17;;;;;;;17.97;100.00;100823.38;6049547;28;20033;-63
2022/08/01 05:47:06;;;;;;;8.03;4.40;;;;;;;18.04;100.00;100824.31;6048848;28;20030;-63
2022/08/01 05:50:02;;;;;;;8.70;4.47;;;;;;;18.18;100.00;100824.22;6056547;28;20288;-63
2022/08/01 05:52:57;;;;;;;8.10;4.30;;;;;;;18.25;100.00;100825.13;6056442;28;20096;-63
2022/08/01 05:55:52;;;;;;;6.47;3.90;;;;;;;18.19;100.00;100806.25;6056837;28;20028;-63
2022/08/01 05:58:49;;;;;;;5.30;3.20;;;;;;;18.27;100.00;100827.59;6057167;28;20056;-63
2022/08/01 06:01:44;;;;;;;6.00;3.25;;;;;;;18.15;100.00;100823.78;6056792;28;20036;-63
2022/08/01 06:04:40;;;;;;;6.93;3.78;;;;;;;18.22;100.00;100835.41;6057008;28;20034;-64
2022/08/01 06:07:36;;;;;;;5.47;3.35;;;;;;;18.05;100.00;100824.09;6056913;28;20036;-63
2022/08/01 06:10:31;;;;;;;6.07;3.42;;;;;;;18.12;100.00;100841.13;6057990;28;20030;-62
2022/08/01 06:13:26;;;;;;;5.40;3.37;;;;;;;18.10;100.00;100836.97;6056673;28;20484;-64
2022/08/01 06:16:22;;;;;;;6.90;4.03;;;;;;;18.09;100.00;100852.22;6056742;28;20108;-66
2022/08/01 06:19:17;;;;;;;6.55;3.08;;;;;;;17.85;100.00;100842.66;6056235;28;20609;-63
2022/08/01 06:22:12;;;;;;;4.77;2.57;;;;;;;17.57;100.00;100846.28;6056088;28;20061;-63
2022/08/01 06:25:08;;;;;;;4.70;2.20;;;;;;;17.52;100.00;100854.84;6054000;28;20048;-63
2022/08/01 06:28:04;;;;;;;3.95;1.92;;;;;;;17.58;100.00;100837.22;6055644;28;20033;-63
2022/08/01 06:30:59;;;;;;;3.58;1.80;;;;;;;17.70;100.00;100862.50;6056284;28;20029;-63
2022/08/01 06:33:56;;;;;;;3.22;1.92;;;;;;;17.69;100.00;100859.00;6055718;28;20465;-63
2022/08/01 06:36:52;;;;;;;3.50;1.65;;;;;;;17.92;100.00;100866.06;6056850;28;20484;-63
2022/08/01 06:39:49;;;;;;;3.80;1.60;;;;;;;17.93;100.00;100867.75;6055555;28;20046;-63
2022/08/01 06:42:45;;;;;;;2.30;1.40;;;;;;;17.83;100.00;100863.50;6055029;28;20060;-63
2022/08/01 06:45:40;;;;;;;3.55;1.80;;;;;;;17.84;100.00;100877.75;6056962;28;20444;-63
2022/08/01 06:48:39;;;;;;;3.35;1.58;;;;;;;17.87;100.00;100885.44;6056472;28;20129;-64
2022/08/01 06:51:34;;;;;;;3.58;1.98;;;;;;;17.89;100.00;100886.06;6055551;28;20171;-63
2022/08/01 06:54:29;;;;;;;4.47;1.90;;;;;;;17.80;100.00;100885.34;6056253;28;20041;-64
2022/08/01 06:57:25;;;;;;;4.00;2.03;;;;;;;17.74;100.00;100880.75;6056237;28;20393;-63
2022/08/01 07:00:22;;;;;;;3.65;2.03;;;;;;;17.81;100.00;100876.28;6052140;28;20452;-63
2022/08/01 07:03:17;;;;;;;4.68;2.50;;;;;;;17.83;100.00;100879.59;6052394;28;20037;-63
2022/08/01 07:06:14;;;;;;;6.10;2.30;;;;;;;17.93;100.00;100878.47;6052172;28;20354;-64
2022/08/01 07:09:10;;;;;;;3.33;2.35;;;;;;;18.14;100.00;100875.81;6052679;28;20351;-63
2022/08/01 07:12:05;;;;;;;3.77;2.33;;;;;;;18.31;100.00;100878.06;6052129;28;20096;-63
2022/08/01 07:15:00;;;;;;;4.32;2.20;;;;;;;18.71;100.00;100889.16;6052472;28;20053;-63
2022/08/01 07:17:56;;;;;;;4.40;1.93;;;;;;;18.84;100.00;100883.88;6052325;28;20034;-63
2022/08/01 07:20:52;;;;;;;3.28;1.88;;;;;;;18.84;100.00;100895.47;6051526;28;20065;-62
2022/08/01 07:23:47;;;;;;;3.83;1.80;;;;;;;18.98;100.00;100888.34;6051292;28;20026;-63
2022/08/01 07:26:45;;;;;;;3.70;1.77;;;;;;;19.01;100.00;100883.41;6051607;28;20084;-63
2022/08/01 07:29:40;;;;;;;2.25;1.27;;;;;;;18.91;98.71;100885.63;6051748;28;20371;-63
2022/08/01 07:32:35;;;;;;;2.40;1.52;;;;;;;19.02;98.08;100885.06;6051790;28;20026;-63
2022/08/01 07:35:31;;;;;;;3.47;1.27;;;;;;;19.15;96.93;100896.94;6051087;28;20103;-63
2022/08/01 07:38:26;;;;;;;3.47;1.45;;;;;;;19.48;94.46;100888.06;6051851;28;20033;-63
2022/08/01 07:41:22;;;;;;;2.30;1.40;;;;;;;20.17;94.49;100888.72;6043511;28;20037;-63
2022/08/01 07:44:17;;;;;;;2.13;1.17;;;;;;;20.68;91.29;100897.09;6051424;28;20023;-63
2022/08/01 07:47:12;;;;;;;1.73;1.17;;;;;;;20.76;89.98;100882.59;6050571;28;20373;-63
2022/08/01 07:50:08;;;;;;;3.00;1.40;;;;;;;21.22;88.17;100887.94;6051333;28;20026;-63
2022/08/01 07:53:04;;;;;;;3.08;1.50;;;;;;;21.00;83.58;100908.06;6051338;28;20807;-63
2022/08/01 07:55:59;;;;;;;3.30;1.38;;;;;;;20.85;85.93;100902.06;6051433;28;20458;-64
2022/08/01 07:58:54;;;;;;;2.03;1.38;;;;;;;20.67;85.95;100906.22;6051631;28;20032;-64
2022/08/01 08:01:50;;;;;;;1.83;1.03;;;;;;;20.59;85.10;100911.81;6050591;28;20038;-63
2022/08/01 08:04:46;;;;;;;2.00;1.30;;;;;;;20.21;85.63;100905.31;6050030;28;20483;-64
2022/08/01 08:07:41;;;;;;;2.78;1.50;;;;;;;20.68;86.12;100907.88;6050910;28;20500;-64
2022/08/01 08:10:36;;;;;;;2.17;1.20;;;;;;;20.51;83.89;100911.19;6050346;28;20457;-63
2022/08/01 08:13:32;;;;;;;2.33;1.20;;;;;;;20.59;83.03;100919.06;6050891;28;20678;-64
2022/08/01 08:16:28;;;;;;;1.97;1.13;;;;;;;20.71;81.76;100923.63;6050405;28;20366;-64
2022/08/01 08:19:23;;;;;;;2.00;0.98;;;;;;;20.95;79.95;100911.41;6050444;28;20018;-64
2022/08/01 08:22:18;;;;;;;1.63;1.20;;;;;;;21.15;80.65;100920.31;6050181;28;20373;-63
2022/08/01 08:25:14;;;;;;;2.37;1.37;;;;;;;21.01;80.24;100912.44;6050585;28;20046;-64
2022/08/01 08:28:09;;;;;;;2.10;1.40;;;;;;;20.69;81.77;100931.09;6050819;28;20018;-64
2022/08/01 08:31:04;;;;;;;4.60;1.87;;;;;;;20.45;82.45;100929.00;6048523;28;20037;-64
2022/08/01 08:33:59;;;;;;;3.17;1.83;;;;;;;20.24;83.31;100931.00;6050175;28;20662;-63
2022/08/01 08:36:56;;;;;;;3.83;2.17;;;;;;;20.15;83.92;100925.78;6049774;28;20026;-63
2022/08/01 08:39:51;;;;;;;4.70;3.10;;;;;;;19.93;83.58;100945.81;6049415;28;20029;-64
2022/08/01 08:42:47;;;;;;;4.83;3.03;;;;;;;19.58;85.75;100952.25;6049094;28;20046;-64
2022/08/01 08:45:43;;;;;;;6.32;3.10;;;;;;;19.17;89.76;100960.25;6048430;28;20033;-64
2022/08/01 08:48:40;;;;;;;4.18;2.85;;;;;;;18.75;92.22;100958.44;6064979;28;20048;-63
2022/08/01 08:51:38;;;;;;;4.22;2.78;;;;;;;18.89;93.29;100962.06;6049431;28;20029;-64
2022/08/01 08:54:35;;;;;;;3.30;1.92;;;;;;;19.17;92.21;100964.78;6049456;28;20037;-64
2022/08/01 08:57:31;;;;;;;2.58;1.70;;;;;;;19.26;90.21;100972.53;6049529;28;20079;-63
2022/08/01 09:00:26;;;;;;;3.10;1.80;;;;;;;19.51;89.69;100967.56;6047090;28;20038;-64
2022/08/01 09:03:21;;;;;;;4.70;1.50;;;;;;;19.68;88.09;100979.63;6049857;28;20767;-63
2022/08/01 09:06:17;;;;;;;2.93;1.50;;;;;;;19.88;86.95;100969.81;6049517;28;20346;-64
2022/08/01 09:09:12;;;;;;;2.45;1.40;;;;;;;20.04;86.25;100972.16;6049286;28;20374;-63
2022/08/01 09:12:08;;;;;;;2.63;1.67;;;;;;;20.16;86.10;100975.09;6049107;28;20431;-63
2022/08/01 09:15:03;;;;;;;3.30;2.03;;;;;;;20.51;84.37;100975.84;6047210;28;20018;-63
2022/08/01 09:17:59;;;;;;;4.25;1.95;;;;;;;21.41;82.18;100967.19;6047768;28;20361;-64
2022/08/01 09:21:07;;;;;;;6.03;2.30;;;;;;;21.96;78.31;100972.03;6048894;28;20034;-63
2022/08/01 09:24:05;;;;;;;3.47;2.00;;;;;;;21.92;77.24;100973.50;6047954;28;20123;-64
2022/08/01 09:27:01;;;;;;;2.72;1.80;;;;;;;21.63;76.75;100974.00;6049120;28;20025;-64
2022/08/01 09:30:11;;;;;;;2.55;1.38;;;;;;;21.27;76.21;100994.19;6048566;28;20501;-64
2022/08/01 09:33:07;;;;;;;1.50;1.10;;;;;;;21.08;77.06;100976.16;6049760;28;20037;-63
2022/08/01 09:36:02;;;;;;;2.17;1.30;;;;;;;21.06;76.97;100990.84;6048352;28;20026;-63
2022/08/01 09:39:12;;;;;;;2.15;1.20;;;;;;;21.18;76.75;101006.22;6049592;28;20032;-63
2022/08/01 09:42:22;;;;;;;1.88;1.10;;;;;;;21.39;76.11;101004.34;6047630;28;20041;-64
2022/08/01 09:45:33;;;;;;;1.58;1.05;;;;;;;21.33;75.42;101003.31;6048708;28;20034;-65
2022/08/01 09:48:28;;;;;;;3.30;1.00;;;;;;;21.01;76.12;100988.75;6046890;28;20385;-63
2022/08/01 09:51:34;;;;;;;1.73;1.10;;;;;;;21.13;76.38;101013.28;6048359;28;20037;-64
2022/08/01 09:54:30;;;;;;;;;;;;;;;21.16;76.56;101024.50;6045719;28;20277;-63
2022/08/01 09:57:27;;;;;;;2.05;0.90;;;;;;;20.85;77.22;101015.28;6048603;28;19913;-63
2022/08/01 10:00:22;;;;;;;3.63;1.30;;;;;;;20.68;78.72;101020.25;6048447;28;20033;-64
2022/08/01 10:03:23;;;;;;;1.83;1.17;;;;;;;20.54;79.05;101037.44;6048890;28;20488;-64
2022/08/01 10:06:20;;;;;;;2.63;1.30;;;;;;;20.60;79.05;101042.03;6047848;28;20726;-64
2022/08/01 10:09:26;;;;;;;1.55;1.13;;;;;;;20.70;78.50;101037.06;6048520;28;20033;-63
2022/08/01 10:12:25;;;;;;;3.65;1.30;;;;;;;20.96;77.41;101028.16;6048578;28;20392;-64
2022/08/01 10:15:20;;;;;;;3.33;1.38;;;;;;;21.05;76.85;101035.88;6048326;28;20050;-63
2022/08/01 10:18:16;;;;;;;1.42;1.00;;;;;;;21.52;75.60;101034.03;6048324;28;20132;-64
2022/08/01 10:21:11;;;;;;;1.43;1.13;;;;;;;21.61;73.36;101032.75;6046925;28;20069;-64
2022/08/01 10:24:07;;;;;;;2.87;1.30;;;;;;;21.61;72.61;101035.44;6048394;28;20029;-63
2022/08/01 10:27:05;;;;;;;3.33;1.38;;;;;;;21.48;73.95;101024.66;6047515;28;20109;-64
2022/08/01 10:30:05;;;;;;;2.55;1.10;;;;;;;21.01;74.63;101018.41;6045900;28;20065;-64
2022/08/01 10:33:00;;;;;;;2.55;1.10;;;;;;;21.18;74.19;101038.59;6048356;28;20029;-64
2022/08/01 10:35:57;;;;;;;3.28;1.23;;;;;;;21.40;71.74;101023.03;6050541;28;20658;-64
2022/08/01 10:38:55;;;;;;;3.03;1.30;;;;;;;21.63;71.21;101046.88;6053070;28;20037;-63
2022/08/01 10:41:51;;;;;;;2.33;1.20;;;;;;;21.49;70.41;101035.28;6051853;28;20030;-63
2022/08/01 10:44:47;;;;;;;3.38;1.30;;;;;;;21.84;69.57;101046.63;6051180;28;20069;-64
2022/08/01 10:47:59;;;;;;;3.33;1.33;;;;;;;21.87;70.44;101043.53;6051916;28;20038;-63
2022/08/01 10:50:58;;;;;;;4.20;1.95;;;;;;;22.21;69.56;101045.09;6045714;28;20030;-64
2022/08/01 10:53:54;;;;;;;2.55;1.50;;;;;;;22.04;69.49;101044.72;6051954;28;20116;-64
2022/08/01 10:56:50;;;;;;;3.58;1.40;;;;;;;21.64;70.27;101053.94;6052737;28;20442;-65
2022/08/01 10:59:50;;;;;;;2.25;1.30;;;;;;;21.59;70.55;101045.63;6052021;28;20033;-64
2022/08/01 11:03:00;;;;;;;2.53;1.38;;;;;;;21.64;70.31;101043.13;6051997;28;20124;-64
2022/08/01 11:05:56;;;;;;;2.20;1.20;;;;;;;21.68;69.15;101042.53;6051951;28;20089;-63
2022/08/01 11:08:53;;;;;;;3.33;1.40;;;;;;;21.57;69.60;101036.91;6049098;28;20054;-63
2022/08/01 11:12:06;;;;;;;3.05;1.23;;;;;;;21.75;69.57;101039.78;6051129;28;20092;-63
2022/08/01 11:15:01;;;;;;;5.18;1.30;;;;;;;21.73;69.78;101047.28;6052267;28;20096;-64
2022/08/01 11:17:57;;;;;;;3.38;1.20;;;;;;;21.75;69.79;101040.63;6051544;28;20450;-64
2022/08/01 11:21:01;;;;;;;3.53;1.42;;;;;;;21.96;69.17;101031.44;6047989;28;20072;-64
2022/08/01 11:23:56;;;;;;;2.17;1.20;;;;;;;21.89;67.15;101046.84;6051189;28;20030;-64
2022/08/01 11:27:24;;;;;;;1.83;1.13;;;;;;;21.92;67.53;101062.66;6049241;28;20458;-63
2022/08/01 11:30:19;;;;;;;3.55;1.30;;;;;;;21.85;67.98;101056.41;6049660;28;20053;-64
2022/08/01 11:33:16;;;;;;;3.45;1.15;;;;;;;21.47;68.79;101063.50;6051871;28;20034;-63
2022/08/01 11:36:12;;;;;;;2.58;1.20;;;;;;;21.31;70.52;101062.88;6051771;28;20371;-64
2022/08/01 11:39:10;;;;;;;4.10;1.40;;;;;;;21.08;71.42;101073.25;6050827;28;20038;-63
2022/08/01 11:42:18;;;;;;;4.70;1.35;;;;;;;20.68;71.95;101079.56;6042978;28;20045;-64
2022/08/01 11:45:14;;;;;;;4.97;1.48;;;;;;;20.60;72.77;101074.34;6050328;28;20073;-63
2022/08/01 11:48:18;;;;;;;5.70;1.55;;;;;;;20.64;72.04;101079.13;6051265;28;20117;-63
2022/08/01 11:51:15;;;;;;;5.65;1.50;;;;;;;20.94;71.48;101085.00;6050272;28;20109;-63
2022/08/01 11:54:11;;;;;;;7.57;1.85;;;;;;;21.43;69.48;101078.44;6051271;28;20029;-63
2022/08/01 11:57:14;;;;;;;5.00;1.67;;;;;;;21.68;67.85;101079.47;6050515;28;20381;-64
2022/08/01 12:00:13;;;;;;;5.50;1.65;;;;;;;22.11;66.52;101077.13;6050248;28;20465;-64
2022/08/01 12:03:09;;;;;;;2.75;1.55;;;;;;;21.96;66.03;101074.66;6051034;28;20048;-63
2022/08/01 12:06:04;;;;;;;4.83;1.37;;;;;;;22.00;64.98;101081.31;6050931;28;20591;-64
2022/08/01 12:09:15;;;;;;;2.65;1.27;;;;;;;22.36;65.66;101070.81;6049900;28;20273;-63
2022/08/01 12:12:11;;;;;;;4.07;1.20;;;;;;;22.56;64.37;101072.63;6050196;28;20405;-64
2022/08/01 12:15:08;;;;;;;3.30;1.45;;;;;;;22.16;63.96;101080.88;6049641;28;20042;-64
2022/08/01 12:18:05;;;;;;;4.03;1.70;;;;;;;21.68;66.14;101076.78;6049765;28;20029;-64
2022/08/01 12:21:04;;;;;;;4.60;1.40;;;;;;;21.87;65.70;101070.56;6049458;28;20373;-64
2022/08/01 12:24:01;;;;;;;4.28;1.60;;;;;;;22.47;63.89;101067.44;6050945;28;20030;-63
2022/08/01 12:26:56;;;;;;;2.65;1.40;;;;;;;22.99;62.08;101070.94;6049244;28;20057;-64
2022/08/01 12:29:51;;;;;;;5.07;1.50;;;;;;;23.35;60.82;101068.34;6069618;28;20539;-63
2022/08/01 12:32:47;;;;;;;4.23;1.53;;;;;;;23.50;60.84;101059.94;6049072;28;20037;-64
2022/08/01 12:35:42;;;;;;;2.92;1.15;;;;;;;23.41;58.72;101056.69;6050138;28;20026;-64
2022/08/01 12:38:38;;;;;;;5.67;1.23;;;;;;;23.60;60.28;101058.38;6050084;28;20381;-63
2022/08/01 12:41:36;;;;;;;4.32;1.23;;;;;;;23.48;59.72;101065.56;6049287;28;20272;-63
2022/08/01 12:44:31;;;;;;;2.78;1.30;;;;;;;23.31;59.47;101069.03;6050196;28;20038;-64
2022/08/01 12:47:27;;;;;;;7.50;1.48;;;;;;;23.18;60.87;101064.56;6049848;28;20034;-64
2022/08/01 12:50:24;;;;;;;4.20;1.40;;;;;;;23.33;60.83;101065.03;6064246;28;20164;-64
2022/08/01 12:53:19;;;;;;;4.00;1.23;;;;;;;23.37;60.09;101060.88;6049500;28;20288;-64
2022/08/01 12:56:15;;;;;;;2.20;1.13;;;;;;;24.17;58.38;101059.06;6048729;28;20030;-64
2022/08/01 12:59:40;;;;;;;2.70;1.20;;;;;;;24.09;55.33;101075.63;6048978;28;20480;-63
2022/08/01 13:02:35;;;;;;;3.65;1.23;;;;;;;23.69;56.31;101067.88;6035656;28;20549;-64
2022/08/01 13:05:46;;;;;;;3.45;1.33;;;;;;;23.33;57.09;101067.75;6049193;28;20033;-64
2022/08/01 13:08:41;;;;;;;5.50;1.60;;;;;;;23.70;57.52;101061.41;6048999;28;20030;-63
2022/08/01 13:11:37;;;;;;;2.47;1.20;;;;;;;24.01;56.49;101062.34;6049131;28;20030;-63
2022/08/01 13:14:32;;;;;;;5.38;1.40;;;;;;;24.18;56.08;101068.84;6049168;28;20280;-62
2022/08/01 13:17:32;;;;;;;4.30;1.40;;;;;;;24.38;53.80;101068.63;6047536;28;20474;-62
2022/08/01 13:20:35;;;;;;;9.40;2.08;;;;;;;24.42;53.43;101062.50;6048061;28;20612;-62
2022/08/01 13:23:30;;;;;;;4.07;1.20;;;;;;;24.42;54.39;101059.78;6049476;28;20042;-62
2022/08/01 13:26:42;;;;;;;3.90;1.52;;;;;;;24.98;52.52;101064.03;6049079;28;20034;-63
2022/08/01 13:29:42;;;;;;;3.53;1.27;;;;;;;25.24;52.19;101063.66;6048858;28;20028;-63
2022/08/01 13:32:37;;;;;;;6.85;1.40;;;;;;;25.13;50.75;101059.03;6048109;28;20113;-63
2022/08/01 13:35:32;;;;;;;2.80;1.30;;;;;;;24.60;52.67;101059.75;6049138;28;20350;-63
2022/08/01 13:41:42;;;;;;;3.10;1.50;;;;;;;23.91;53.75;101065.59;6045287;28;20269;-64
2022/08/01 13:44:37;;;;;;;3.58;1.60;;;;;;;23.77;53.84;101074.88;6049430;28;20346;-64